Share

Arlington, GA

7:52 PM EDT on April 24, 2014 (GMT -0400)
Southwest Georgia Regional (KABY) Elev 194 ft | 31.54 °N, 84.19 °W | Change Station

Current weather conditions updated 59 minutes ago

Scattered Clouds
Scattered Clouds
84 °F
Feels Like 83 °F
N
0
Wind Variable Wind from North
Sunrise 7:00 AM
Sunset 8:13 PM
Moon Waning Crescent

Tomorrow is forecast to be nearly the same temperature as today.

Pressure 29.92 in
Visibility 10.0 miles
Clouds Scattered Clouds 6500 ft
Heat Index 83 °F
Dew Point 57 °F
Humidity 40%
Rainfall 0.00 in
Snow Depth Not available.
UV 1 out of 16
Pollen 7.80 out of 12
Air Quality Not available.
Flu Activity Sporadic
METAR KABY 242253Z 00000KT 10SM SCT065 29/14 A2992 RMK AO2 SLP132 T02890139

More Conditions Fewer Conditions

Pressure 29.92 in
Visibility 10.0 miles
Clouds Scattered Clouds 6500 ft
Heat Index 83 °F
Dew Point 57 °F
Humidity 40%
Rainfall 0.00 in
Snow Depth Not available.
UV 1 out of 16
Pollen 7.80 out of 12
Air Quality Not available.
Flu Activity Sporadic
METAR KABY 242253Z 00000KT 10SM SCT065 29/14 A2992 RMK AO2 SLP132 T02890139

More Conditions Fewer Conditions

10-Day Weather Forecast

Almanac

Astronomy

Apr. 24, 2014 Rise Set
Actual Time 7:00 AM EDT 8:13 PM EDT
Civil Twilight 6:35 AM EDT 8:39 PM EDT
Nautical Twilight 6:05 AM EDT 9:09 PM EDT
Astronomical Twilight 5:33 AM EDT 9:40 PM EDT
Moon 3:51 AM EDT 3:46 PM EDT
Length of Visible Light 14h 03m
Length of Day
13h 12m
Tomorrow will be 1m 43s longer.
Waning Crescent, 21% of the Moon is Illuminated
Today
Waning Crescent
Apr 29
New
May 6
First Quarter
May 14
Full
May 21
Last Quarter

Today's Extremes

State Highs State Lows

Community

  • Jone Runs Falls
    Jone Runs Falls
  • Easter in Shenandoah National Park
    Easter in Shenandoah National Park
  • Sunset at Apalachicola Bay, Florida
    Sunset at Apalachicola Bay, Florida
  • Clouds mov'n in
    Clouds mov'n in
  • Stacked
    Stacked

WunderPhotos

Upload Photos

1,704,746 photos uploaded!

Nearby

Snow Depth

Station Depth Elevation
No new snow has been reported.

Coastal Water Temperatures

Place Temperature
No Stations Reporting

Earthquake Activity

City Distance Mag. Time & Date
No recent earthquake activity has been reported nearby.
Minimum magnitude displayed is 2.5.

Nearby Weather Stations

There are no personal weather stations in this area.

What do you think?

We're not finished. Please let us know what you like, what you don't like, and what you are still missing.